sensor_id;sensor_type;location;lat;lon;timestamp;P1;durP1;ratioP1;P2;durP2;ratioP2
25123;SDS011;13104;51.030;4.686;2023-06-19T00:00:31;6.05;;;4.43;;
25123;SDS011;13104;51.030;4.686;2023-06-19T00:02:58;6.13;;;4.32;;
25123;SDS011;13104;51.030;4.686;2023-06-19T00:05:24;10.27;;;4.43;;
25123;SDS011;13104;51.030;4.686;2023-06-19T00:07:50;5.82;;;4.45;;
25123;SDS011;13104;51.030;4.686;2023-06-19T00:10:16;9.82;;;4.43;;
25123;SDS011;13104;51.030;4.686;2023-06-19T00:12:43;7.93;;;4.68;;
25123;SDS011;13104;51.030;4.686;2023-06-19T00:15:09;6.43;;;3.83;;
25123;SDS011;13104;51.030;4.686;2023-06-19T00:17:36;6.45;;;4.20;;
25123;SDS011;13104;51.030;4.686;2023-06-19T00:20:06;5.53;;;4.00;;
25123;SDS011;13104;51.030;4.686;2023-06-19T00:22:32;6.85;;;3.97;;
25123;SDS011;13104;51.030;4.686;2023-06-19T00:24:59;6.93;;;4.22;;
25123;SDS011;13104;51.030;4.686;2023-06-19T00:27:25;7.75;;;4.28;;
25123;SDS011;13104;51.030;4.686;2023-06-19T00:29:51;5.45;;;4.30;;
25123;SDS011;13104;51.030;4.686;2023-06-19T00:32:17;6.50;;;4.15;;
25123;SDS011;13104;51.030;4.686;2023-06-19T00:34:43;7.28;;;4.20;;
25123;SDS011;13104;51.030;4.686;2023-06-19T00:37:09;6.10;;;3.90;;
25123;SDS011;13104;51.030;4.686;2023-06-19T00:39:38;6.68;;;4.28;;
25123;SDS011;13104;51.030;4.686;2023-06-19T00:42:05;6.97;;;4.45;;
25123;SDS011;13104;51.030;4.686;2023-06-19T00:44:31;5.70;;;3.75;;
25123;SDS011;13104;51.030;4.686;2023-06-19T00:46:58;8.43;;;3.75;;
25123;SDS011;13104;51.030;4.686;2023-06-19T00:49:25;7.10;;;4.20;;
25123;SDS011;13104;51.030;4.686;2023-06-19T00:51:51;6.72;;;3.83;;
25123;SDS011;13104;51.030;4.686;2023-06-19T00:54:18;7.35;;;4.03;;
25123;SDS011;13104;51.030;4.686;2023-06-19T00:56:45;6.75;;;3.67;;
25123;SDS011;13104;51.030;4.686;2023-06-19T00:59:13;7.70;;;3.80;;
25123;SDS011;13104;51.030;4.686;2023-06-19T01:01:41;8.80;;;3.60;;
25123;SDS011;13104;51.030;4.686;2023-06-19T01:04:07;6.07;;;3.17;;
25123;SDS011;13104;51.030;4.686;2023-06-19T01:06:38;6.70;;;3.38;;
25123;SDS011;13104;51.030;4.686;2023-06-19T01:09:05;6.03;;;3.25;;
25123;SDS011;13104;51.030;4.686;2023-06-19T01:11:33;5.82;;;3.38;;
25123;SDS011;13104;51.030;4.686;2023-06-19T01:14:08;4.88;;;3.25;;
25123;SDS011;13104;51.030;4.686;2023-06-19T01:16:35;5.38;;;3.00;;
25123;SDS011;13104;51.030;4.686;2023-06-19T01:19:02;5.63;;;3.80;;
25123;SDS011;13104;51.030;4.686;2023-06-19T01:21:29;6.00;;;3.22;;
25123;SDS011;13104;51.030;4.686;2023-06-19T01:23:55;5.68;;;3.58;;
25123;SDS011;13104;51.030;4.686;2023-06-19T01:26:22;6.38;;;3.45;;
25123;SDS011;13104;51.030;4.686;2023-06-19T01:28:52;5.80;;;3.58;;
25123;SDS011;13104;51.030;4.686;2023-06-19T01:33:46;4.82;;;3.00;;
25123;SDS011;13104;51.030;4.686;2023-06-19T01:36:13;8.00;;;3.00;;
25123;SDS011;13104;51.030;4.686;2023-06-19T01:38:40;13.27;;;3.63;;
25123;SDS011;13104;51.030;4.686;2023-06-19T01:41:06;5.97;;;3.60;;
25123;SDS011;13104;51.030;4.686;2023-06-19T01:43:33;4.32;;;3.30;;
25123;SDS011;13104;51.030;4.686;2023-06-19T01:46:02;7.38;;;3.13;;
25123;SDS011;13104;51.030;4.686;2023-06-19T01:48:28;4.13;;;3.15;;
25123;SDS011;13104;51.030;4.686;2023-06-19T01:50:54;4.97;;;3.33;;
25123;SDS011;13104;51.030;4.686;2023-06-19T01:53:23;4.70;;;3.20;;
25123;SDS011;13104;51.030;4.686;2023-06-19T01:55:49;6.63;;;3.05;;
25123;SDS011;13104;51.030;4.686;2023-06-19T01:58:15;5.55;;;3.30;;
25123;SDS011;13104;51.030;4.686;2023-06-19T02:00:41;7.45;;;3.33;;
25123;SDS011;13104;51.030;4.686;2023-06-19T02:03:08;5.70;;;3.10;;
25123;SDS011;13104;51.030;4.686;2023-06-19T02:05:34;8.10;;;3.80;;
25123;SDS011;13104;51.030;4.686;2023-06-19T02:08:04;6.00;;;3.22;;
25123;SDS011;13104;51.030;4.686;2023-06-19T02:10:31;8.27;;;3.45;;
25123;SDS011;13104;51.030;4.686;2023-06-19T02:12:57;5.35;;;3.35;;
25123;SDS011;13104;51.030;4.686;2023-06-19T02:15:23;5.05;;;3.08;;
25123;SDS011;13104;51.030;4.686;2023-06-19T02:17:49;4.47;;;3.38;;
25123;SDS011;13104;51.030;4.686;2023-06-19T02:20:20;4.90;;;3.70;;
25123;SDS011;13104;51.030;4.686;2023-06-19T02:22:46;5.93;;;3.95;;
25123;SDS011;13104;51.030;4.686;2023-06-19T02:25:12;5.57;;;3.63;;
25123;SDS011;13104;51.030;4.686;2023-06-19T02:27:38;4.35;;;3.20;;
25123;SDS011;13104;51.030;4.686;2023-06-19T02:30:06;6.00;;;3.42;;
25123;SDS011;13104;51.030;4.686;2023-06-19T02:32:32;9.95;;;3.63;;
25123;SDS011;13104;51.030;4.686;2023-06-19T02:34:58;4.28;;;3.10;;
25123;SDS011;13104;51.030;4.686;2023-06-19T02:37:24;5.22;;;3.30;;
25123;SDS011;13104;51.030;4.686;2023-06-19T02:39:50;7.78;;;3.60;;
25123;SDS011;13104;51.030;4.686;2023-06-19T02:42:16;5.85;;;3.83;;
25123;SDS011;13104;51.030;4.686;2023-06-19T02:44:43;8.27;;;3.55;;
25123;SDS011;13104;51.030;4.686;2023-06-19T02:47:10;5.20;;;3.47;;
25123;SDS011;13104;51.030;4.686;2023-06-19T02:49:36;7.07;;;3.45;;
25123;SDS011;13104;51.030;4.686;2023-06-19T02:52:03;4.63;;;3.55;;
25123;SDS011;13104;51.030;4.686;2023-06-19T02:54:29;5.78;;;3.97;;
25123;SDS011;13104;51.030;4.686;2023-06-19T02:56:56;8.38;;;3.58;;
25123;SDS011;13104;51.030;4.686;2023-06-19T02:59:22;7.07;;;3.60;;
25123;SDS011;13104;51.030;4.686;2023-06-19T03:01:48;5.82;;;4.25;;
25123;SDS011;13104;51.030;4.686;2023-06-19T03:04:14;6.45;;;4.30;;
25123;SDS011;13104;51.030;4.686;2023-06-19T03:06:40;7.35;;;3.85;;
25123;SDS011;13104;51.030;4.686;2023-06-19T03:09:06;4.20;;;3.80;;
25123;SDS011;13104;51.030;4.686;2023-06-19T03:11:39;9.88;;;4.10;;
25123;SDS011;13104;51.030;4.686;2023-06-19T03:14:05;6.35;;;4.15;;
25123;SDS011;13104;51.030;4.686;2023-06-19T03:16:32;5.45;;;3.88;;
25123;SDS011;13104;51.030;4.686;2023-06-19T03:18:58;5.70;;;3.95;;
25123;SDS011;13104;51.030;4.686;2023-06-19T03:21:24;6.88;;;4.18;;
25123;SDS011;13104;51.030;4.686;2023-06-19T03:23:50;9.10;;;4.10;;
25123;SDS011;13104;51.030;4.686;2023-06-19T03:26:18;5.65;;;4.00;;
25123;SDS011;13104;51.030;4.686;2023-06-19T03:28:44;6.57;;;3.75;;
25123;SDS011;13104;51.030;4.686;2023-06-19T03:31:12;5.47;;;4.00;;
25123;SDS011;13104;51.030;4.686;2023-06-19T03:33:39;10.77;;;4.38;;
25123;SDS011;13104;51.030;4.686;2023-06-19T03:36:05;7.10;;;4.18;;
25123;SDS011;13104;51.030;4.686;2023-06-19T03:38:31;6.60;;;4.25;;
25123;SDS011;13104;51.030;4.686;2023-06-19T03:40:57;8.57;;;4.25;;
25123;SDS011;13104;51.030;4.686;2023-06-19T03:43:23;7.88;;;4.25;;
25123;SDS011;13104;51.030;4.686;2023-06-19T03:45:49;9.43;;;4.18;;
25123;SDS011;13104;51.030;4.686;2023-06-19T03:48:16;10.60;;;5.60;;
25123;SDS011;13104;51.030;4.686;2023-06-19T03:50:43;6.82;;;4.53;;
25123;SDS011;13104;51.030;4.686;2023-06-19T03:53:09;7.88;;;4.80;;
25123;SDS011;13104;51.030;4.686;2023-06-19T03:55:35;9.25;;;5.25;;
25123;SDS011;13104;51.030;4.686;2023-06-19T03:58:01;6.35;;;4.68;;
25123;SDS011;13104;51.030;4.686;2023-06-19T04:00:27;8.43;;;5.00;;
25123;SDS011;13104;51.030;4.686;2023-06-19T04:02:53;7.72;;;5.22;;
25123;SDS011;13104;51.030;4.686;2023-06-19T04:05:19;10.00;;;5.43;;
25123;SDS011;13104;51.030;4.686;2023-06-19T04:07:45;7.60;;;5.32;;
25123;SDS011;13104;51.030;4.686;2023-06-19T04:10:12;7.63;;;5.43;;
25123;SDS011;13104;51.030;4.686;2023-06-19T04:12:38;7.45;;;5.05;;
25123;SDS011;13104;51.030;4.686;2023-06-19T04:15:05;9.43;;;5.63;;
25123;SDS011;13104;51.030;4.686;2023-06-19T04:17:31;10.90;;;5.07;;
25123;SDS011;13104;51.030;4.686;2023-06-19T04:19:58;8.80;;;5.22;;
25123;SDS011;13104;51.030;4.686;2023-06-19T04:22:24;9.68;;;5.55;;
25123;SDS011;13104;51.030;4.686;2023-06-19T04:24:50;7.50;;;5.03;;
25123;SDS011;13104;51.030;4.686;2023-06-19T04:27:16;12.98;;;5.32;;
25123;SDS011;13104;51.030;4.686;2023-06-19T04:29:42;7.45;;;5.00;;
25123;SDS011;13104;51.030;4.686;2023-06-19T04:32:08;8.75;;;4.80;;
25123;SDS011;13104;51.030;4.686;2023-06-19T04:34:38;10.48;;;4.90;;
25123;SDS011;13104;51.030;4.686;2023-06-19T04:37:04;7.55;;;4.63;;
25123;SDS011;13104;51.030;4.686;2023-06-19T04:39:30;7.32;;;4.35;;
25123;SDS011;13104;51.030;4.686;2023-06-19T04:41:56;7.95;;;4.10;;
25123;SDS011;13104;51.030;4.686;2023-06-19T04:44:23;6.15;;;4.03;;
25123;SDS011;13104;51.030;4.686;2023-06-19T04:46:49;9.32;;;4.30;;
25123;SDS011;13104;51.030;4.686;2023-06-19T04:49:15;9.18;;;4.57;;
25123;SDS011;13104;51.030;4.686;2023-06-19T04:51:41;6.38;;;4.40;;
25123;SDS011;13104;51.030;4.686;2023-06-19T04:54:07;8.98;;;4.28;;
25123;SDS011;13104;51.030;4.686;2023-06-19T04:56:33;11.00;;;4.70;;
25123;SDS011;13104;51.030;4.686;2023-06-19T04:58:59;7.72;;;4.50;;
25123;SDS011;13104;51.030;4.686;2023-06-19T05:01:27;6.40;;;4.43;;
25123;SDS011;13104;51.030;4.686;2023-06-19T05:03:53;6.38;;;4.20;;
25123;SDS011;13104;51.030;4.686;2023-06-19T05:06:23;7.55;;;4.32;;
25123;SDS011;13104;51.030;4.686;2023-06-19T05:08:49;8.18;;;4.28;;
25123;SDS011;13104;51.030;4.686;2023-06-19T05:11:16;10.55;;;4.50;;
25123;SDS011;13104;51.030;4.686;2023-06-19T05:13:42;8.82;;;4.00;;
25123;SDS011;13104;51.030;4.686;2023-06-19T05:16:08;6.63;;;4.10;;
25123;SDS011;13104;51.030;4.686;2023-06-19T05:18:34;7.60;;;4.50;;
25123;SDS011;13104;51.030;4.686;2023-06-19T05:21:00;7.75;;;4.50;;
25123;SDS011;13104;51.030;4.686;2023-06-19T05:23:26;5.78;;;3.92;;
25123;SDS011;13104;51.030;4.686;2023-06-19T05:25:53;6.05;;;4.40;;
25123;SDS011;13104;51.030;4.686;2023-06-19T05:28:22;8.48;;;4.40;;
25123;SDS011;13104;51.030;4.686;2023-06-19T05:30:48;7.28;;;4.82;;
25123;SDS011;13104;51.030;4.686;2023-06-19T05:33:15;9.45;;;5.35;;
25123;SDS011;13104;51.030;4.686;2023-06-19T05:35:42;13.80;;;5.72;;
25123;SDS011;13104;51.030;4.686;2023-06-19T05:38:09;7.70;;;5.90;;
25123;SDS011;13104;51.030;4.686;2023-06-19T05:40:35;8.68;;;5.55;;
25123;SDS011;13104;51.030;4.686;2023-06-19T05:43:01;11.68;;;5.68;;
25123;SDS011;13104;51.030;4.686;2023-06-19T05:45:27;10.95;;;5.82;;
25123;SDS011;13104;51.030;4.686;2023-06-19T05:47:53;8.18;;;6.05;;
25123;SDS011;13104;51.030;4.686;2023-06-19T05:50:19;9.43;;;6.57;;
25123;SDS011;13104;51.030;4.686;2023-06-19T05:52:46;10.98;;;7.25;;
25123;SDS011;13104;51.030;4.686;2023-06-19T05:55:12;10.98;;;6.60;;
25123;SDS011;13104;51.030;4.686;2023-06-19T05:57:38;9.57;;;6.40;;
25123;SDS011;13104;51.030;4.686;2023-06-19T06:00:04;8.70;;;6.50;;
25123;SDS011;13104;51.030;4.686;2023-06-19T06:02:32;10.73;;;7.00;;
25123;SDS011;13104;51.030;4.686;2023-06-19T06:04:58;9.80;;;6.55;;
25123;SDS011;13104;51.030;4.686;2023-06-19T06:07:24;13.07;;;6.80;;
25123;SDS011;13104;51.030;4.686;2023-06-19T06:09:52;10.50;;;7.22;;
25123;SDS011;13104;51.030;4.686;2023-06-19T06:12:19;10.48;;;7.80;;
25123;SDS011;13104;51.030;4.686;2023-06-19T06:14:45;12.30;;;7.75;;
25123;SDS011;13104;51.030;4.686;2023-06-19T06:17:11;9.50;;;6.60;;
25123;SDS011;13104;51.030;4.686;2023-06-19T06:19:37;9.73;;;7.18;;
25123;SDS011;13104;51.030;4.686;2023-06-19T06:22:04;10.57;;;7.03;;
25123;SDS011;13104;51.030;4.686;2023-06-19T06:24:30;10.45;;;7.75;;
25123;SDS011;13104;51.030;4.686;2023-06-19T06:26:56;14.40;;;8.10;;
25123;SDS011;13104;51.030;4.686;2023-06-19T06:29:24;12.98;;;7.40;;
25123;SDS011;13104;51.030;4.686;2023-06-19T06:31:50;11.73;;;7.93;;
25123;SDS011;13104;51.030;4.686;2023-06-19T06:34:19;12.43;;;7.50;;
25123;SDS011;13104;51.030;4.686;2023-06-19T06:36:45;12.13;;;8.00;;
25123;SDS011;13104;51.030;4.686;2023-06-19T06:39:11;15.27;;;8.15;;
25123;SDS011;13104;51.030;4.686;2023-06-19T06:41:37;17.10;;;9.05;;
25123;SDS011;13104;51.030;4.686;2023-06-19T06:44:03;15.55;;;8.60;;
25123;SDS011;13104;51.030;4.686;2023-06-19T06:46:29;13.95;;;9.00;;
25123;SDS011;13104;51.030;4.686;2023-06-19T06:48:55;16.85;;;10.02;;
25123;SDS011;13104;51.030;4.686;2023-06-19T06:51:22;13.90;;;9.50;;
25123;SDS011;13104;51.030;4.686;2023-06-19T06:53:48;16.70;;;9.55;;
25123;SDS011;13104;51.030;4.686;2023-06-19T06:56:14;14.13;;;10.77;;
25123;SDS011;13104;51.030;4.686;2023-06-19T06:58:40;20.10;;;11.25;;
25123;SDS011;13104;51.030;4.686;2023-06-19T07:01:06;15.70;;;10.95;;
25123;SDS011;13104;51.030;4.686;2023-06-19T07:03:33;14.52;;;11.95;;
25123;SDS011;13104;51.030;4.686;2023-06-19T07:05:59;14.40;;;11.00;;
25123;SDS011;13104;51.030;4.686;2023-06-19T07:08:26;16.95;;;11.45;;
25123;SDS011;13104;51.030;4.686;2023-06-19T07:10:52;18.80;;;11.68;;
25123;SDS011;13104;51.030;4.686;2023-06-19T07:13:18;16.10;;;10.93;;
25123;SDS011;13104;51.030;4.686;2023-06-19T07:15:44;15.55;;;10.65;;
25123;SDS011;13104;51.030;4.686;2023-06-19T07:18:10;17.58;;;11.23;;
25123;SDS011;13104;51.030;4.686;2023-06-19T07:20:36;17.02;;;12.07;;
25123;SDS011;13104;51.030;4.686;2023-06-19T07:23:03;15.52;;;11.15;;
25123;SDS011;13104;51.030;4.686;2023-06-19T07:25:29;15.77;;;11.13;;
25123;SDS011;13104;51.030;4.686;2023-06-19T07:27:55;17.88;;;11.88;;
25123;SDS011;13104;51.030;4.686;2023-06-19T07:30:21;18.85;;;12.82;;
25123;SDS011;13104;51.030;4.686;2023-06-19T07:32:47;19.48;;;12.77;;
25123;SDS011;13104;51.030;4.686;2023-06-19T07:35:14;17.33;;;12.23;;
25123;SDS011;13104;51.030;4.686;2023-06-19T07:37:40;18.17;;;13.07;;
25123;SDS011;13104;51.030;4.686;2023-06-19T07:40:06;20.63;;;12.40;;
25123;SDS011;13104;51.030;4.686;2023-06-19T07:42:32;16.63;;;11.07;;
25123;SDS011;13104;51.030;4.686;2023-06-19T07:44:58;21.73;;;12.10;;
25123;SDS011;13104;51.030;4.686;2023-06-19T07:47:26;19.45;;;12.13;;
25123;SDS011;13104;51.030;4.686;2023-06-19T07:49:52;21.23;;;12.63;;
25123;SDS011;13104;51.030;4.686;2023-06-19T07:52:18;19.88;;;12.95;;
25123;SDS011;13104;51.030;4.686;2023-06-19T07:54:50;17.58;;;13.30;;
25123;SDS011;13104;51.030;4.686;2023-06-19T07:57:16;17.08;;;12.82;;
25123;SDS011;13104;51.030;4.686;2023-06-19T07:59:42;19.25;;;12.77;;
25123;SDS011;13104;51.030;4.686;2023-06-19T08:02:10;16.50;;;12.80;;
25123;SDS011;13104;51.030;4.686;2023-06-19T08:04:36;17.65;;;11.75;;
25123;SDS011;13104;51.030;4.686;2023-06-19T08:07:02;17.00;;;12.30;;
25123;SDS011;13104;51.030;4.686;2023-06-19T08:09:28;15.38;;;11.95;;
25123;SDS011;13104;51.030;4.686;2023-06-19T08:11:54;14.90;;;12.05;;
25123;SDS011;13104;51.030;4.686;2023-06-19T08:14:20;17.95;;;12.00;;
25123;SDS011;13104;51.030;4.686;2023-06-19T08:16:47;17.98;;;11.80;;
25123;SDS011;13104;51.030;4.686;2023-06-19T08:19:13;16.55;;;11.23;;
25123;SDS011;13104;51.030;4.686;2023-06-19T08:21:39;16.67;;;11.70;;
25123;SDS011;13104;51.030;4.686;2023-06-19T08:24:05;16.90;;;11.98;;
25123;SDS011;13104;51.030;4.686;2023-06-19T08:26:31;16.25;;;11.13;;
25123;SDS011;13104;51.030;4.686;2023-06-19T08:28:57;16.13;;;11.93;;
25123;SDS011;13104;51.030;4.686;2023-06-19T08:31:24;17.02;;;10.88;;
25123;SDS011;13104;51.030;4.686;2023-06-19T08:33:55;17.13;;;11.98;;
25123;SDS011;13104;51.030;4.686;2023-06-19T08:36:21;18.70;;;11.50;;
25123;SDS011;13104;51.030;4.686;2023-06-19T08:38:48;23.33;;;12.77;;
25123;SDS011;13104;51.030;4.686;2023-06-19T08:41:17;20.00;;;12.02;;
25123;SDS011;13104;51.030;4.686;2023-06-19T08:43:46;18.77;;;13.75;;
25123;SDS011;13104;51.030;4.686;2023-06-19T08:46:16;20.13;;;13.02;;
25123;SDS011;13104;51.030;4.686;2023-06-19T08:48:42;24.35;;;12.93;;
25123;SDS011;13104;51.030;4.686;2023-06-19T08:51:12;17.95;;;11.80;;
25123;SDS011;13104;51.030;4.686;2023-06-19T08:53:45;18.25;;;13.45;;
25123;SDS011;13104;51.030;4.686;2023-06-19T08:56:12;18.40;;;12.10;;
25123;SDS011;13104;51.030;4.686;2023-06-19T08:58:38;21.38;;;12.48;;
25123;SDS011;13104;51.030;4.686;2023-06-19T09:01:04;18.58;;;12.60;;
25123;SDS011;13104;51.030;4.686;2023-06-19T09:03:30;17.13;;;12.05;;
25123;SDS011;13104;51.030;4.686;2023-06-19T09:05:58;16.48;;;10.70;;
25123;SDS011;13104;51.030;4.686;2023-06-19T09:08:24;17.45;;;10.63;;
25123;SDS011;13104;51.030;4.686;2023-06-19T09:10:57;17.75;;;10.43;;
25123;SDS011;13104;51.030;4.686;2023-06-19T09:13:23;18.88;;;10.82;;
25123;SDS011;13104;51.030;4.686;2023-06-19T09:15:59;15.38;;;10.00;;
25123;SDS011;13104;51.030;4.686;2023-06-19T09:18:27;16.15;;;11.20;;
25123;SDS011;13104;51.030;4.686;2023-06-19T09:20:54;22.88;;;11.52;;
25123;SDS011;13104;51.030;4.686;2023-06-19T09:23:20;14.07;;;10.07;;
25123;SDS011;13104;51.030;4.686;2023-06-19T09:25:47;19.10;;;10.45;;
25123;SDS011;13104;51.030;4.686;2023-06-19T09:28:20;18.08;;;10.52;;
25123;SDS011;13104;51.030;4.686;2023-06-19T09:33:19;15.18;;;9.07;;
25123;SDS011;13104;51.030;4.686;2023-06-19T09:35:45;14.23;;;9.60;;
25123;SDS011;13104;51.030;4.686;2023-06-19T09:38:11;12.90;;;9.68;;
25123;SDS011;13104;51.030;4.686;2023-06-19T09:40:38;13.48;;;9.07;;
25123;SDS011;13104;51.030;4.686;2023-06-19T09:43:05;14.02;;;9.23;;
25123;SDS011;13104;51.030;4.686;2023-06-19T09:45:32;14.98;;;8.60;;
25123;SDS011;13104;51.030;4.686;2023-06-19T09:48:00;14.13;;;8.30;;
25123;SDS011;13104;51.030;4.686;2023-06-19T09:50:26;15.38;;;8.63;;
25123;SDS011;13104;51.030;4.686;2023-06-19T09:52:53;13.82;;;9.05;;
25123;SDS011;13104;51.030;4.686;2023-06-19T09:55:20;12.65;;;8.23;;
25123;SDS011;13104;51.030;4.686;2023-06-19T09:57:49;16.92;;;8.88;;
25123;SDS011;13104;51.030;4.686;2023-06-19T10:00:16;13.45;;;9.25;;
25123;SDS011;13104;51.030;4.686;2023-06-19T10:02:47;15.77;;;9.05;;
25123;SDS011;13104;51.030;4.686;2023-06-19T10:05:14;17.75;;;8.32;;
25123;SDS011;13104;51.030;4.686;2023-06-19T10:07:41;13.70;;;8.05;;
25123;SDS011;13104;51.030;4.686;2023-06-19T10:10:09;16.40;;;8.15;;
25123;SDS011;13104;51.030;4.686;2023-06-19T10:12:38;12.13;;;7.50;;
25123;SDS011;13104;51.030;4.686;2023-06-19T10:15:08;12.15;;;7.80;;
25123;SDS011;13104;51.030;4.686;2023-06-19T10:17:35;11.93;;;6.85;;
25123;SDS011;13104;51.030;4.686;2023-06-19T10:20:01;15.48;;;7.97;;
25123;SDS011;13104;51.030;4.686;2023-06-19T10:22:31;38.60;;;9.45;;
25123;SDS011;13104;51.030;4.686;2023-06-19T10:24:57;13.02;;;7.60;;
25123;SDS011;13104;51.030;4.686;2023-06-19T10:27:24;13.52;;;7.38;;
25123;SDS011;13104;51.030;4.686;2023-06-19T10:29:54;13.07;;;7.40;;
25123;SDS011;13104;51.030;4.686;2023-06-19T10:32:22;14.05;;;7.55;;
25123;SDS011;13104;51.030;4.686;2023-06-19T10:34:49;8.68;;;5.85;;
25123;SDS011;13104;51.030;4.686;2023-06-19T10:37:15;15.35;;;7.28;;
25123;SDS011;13104;51.030;4.686;2023-06-19T10:39:42;14.70;;;7.03;;
25123;SDS011;13104;51.030;4.686;2023-06-19T10:42:08;15.75;;;6.88;;
25123;SDS011;13104;51.030;4.686;2023-06-19T10:44:35;14.43;;;7.18;;
25123;SDS011;13104;51.030;4.686;2023-06-19T10:47:03;9.10;;;6.75;;
25123;SDS011;13104;51.030;4.686;2023-06-19T10:49:29;10.10;;;6.57;;
25123;SDS011;13104;51.030;4.686;2023-06-19T10:51:56;13.00;;;6.88;;
25123;SDS011;13104;51.030;4.686;2023-06-19T10:54:25;11.95;;;6.57;;
25123;SDS011;13104;51.030;4.686;2023-06-19T10:56:51;13.52;;;6.80;;
25123;SDS011;13104;51.030;4.686;2023-06-19T10:59:17;12.35;;;6.95;;
25123;SDS011;13104;51.030;4.686;2023-06-19T11:01:47;10.50;;;6.25;;
25123;SDS011;13104;51.030;4.686;2023-06-19T11:04:16;11.00;;;6.70;;
25123;SDS011;13104;51.030;4.686;2023-06-19T11:06:43;13.05;;;7.60;;
25123;SDS011;13104;51.030;4.686;2023-06-19T11:09:10;10.32;;;6.65;;
25123;SDS011;13104;51.030;4.686;2023-06-19T11:14:06;10.60;;;7.00;;
25123;SDS011;13104;51.030;4.686;2023-06-19T11:16:33;10.73;;;6.53;;
25123;SDS011;13104;51.030;4.686;2023-06-19T11:18:59;9.40;;;7.10;;
25123;SDS011;13104;51.030;4.686;2023-06-19T11:21:32;10.75;;;6.65;;
25123;SDS011;13104;51.030;4.686;2023-06-19T11:24:00;8.73;;;5.95;;
25123;SDS011;13104;51.030;4.686;2023-06-19T11:26:26;11.18;;;6.93;;
25123;SDS011;13104;51.030;4.686;2023-06-19T11:28:53;9.57;;;5.88;;
25123;SDS011;13104;51.030;4.686;2023-06-19T11:31:24;9.23;;;6.22;;
25123;SDS011;13104;51.030;4.686;2023-06-19T11:33:57;11.68;;;6.95;;
25123;SDS011;13104;51.030;4.686;2023-06-19T11:36:24;13.70;;;6.65;;
25123;SDS011;13104;51.030;4.686;2023-06-19T11:38:52;14.73;;;6.15;;
25123;SDS011;13104;51.030;4.686;2023-06-19T11:41:28;12.32;;;7.05;;
25123;SDS011;13104;51.030;4.686;2023-06-19T11:43:58;13.52;;;6.13;;
25123;SDS011;13104;51.030;4.686;2023-06-19T11:46:28;10.13;;;6.13;;
25123;SDS011;13104;51.030;4.686;2023-06-19T11:48:55;13.23;;;6.72;;
25123;SDS011;13104;51.030;4.686;2023-06-19T11:51:21;9.88;;;5.88;;
25123;SDS011;13104;51.030;4.686;2023-06-19T11:53:47;12.85;;;6.57;;
25123;SDS011;13104;51.030;4.686;2023-06-19T11:56:13;11.15;;;6.93;;
25123;SDS011;13104;51.030;4.686;2023-06-19T11:58:39;9.30;;;6.80;;
25123;SDS011;13104;51.030;4.686;2023-06-19T12:01:05;11.65;;;6.72;;
25123;SDS011;13104;51.030;4.686;2023-06-19T12:03:32;8.93;;;6.70;;
25123;SDS011;13104;51.030;4.686;2023-06-19T12:05:58;13.63;;;6.75;;
25123;SDS011;13104;51.030;4.686;2023-06-19T12:08:24;11.18;;;6.72;;
25123;SDS011;13104;51.030;4.686;2023-06-19T12:10:51;10.93;;;5.95;;
25123;SDS011;13104;51.030;4.686;2023-06-19T12:13:18;9.32;;;5.93;;
25123;SDS011;13104;51.030;4.686;2023-06-19T12:15:44;10.25;;;6.70;;
25123;SDS011;13104;51.030;4.686;2023-06-19T12:18:10;11.15;;;6.50;;
25123;SDS011;13104;51.030;4.686;2023-06-19T12:20:37;11.60;;;6.13;;
25123;SDS011;13104;51.030;4.686;2023-06-19T12:23:03;9.50;;;6.43;;
25123;SDS011;13104;51.030;4.686;2023-06-19T12:25:29;12.38;;;6.88;;
25123;SDS011;13104;51.030;4.686;2023-06-19T12:27:55;13.02;;;6.68;;
25123;SDS011;13104;51.030;4.686;2023-06-19T12:30:22;12.63;;;6.20;;
25123;SDS011;13104;51.030;4.686;2023-06-19T12:32:48;12.30;;;6.30;;
25123;SDS011;13104;51.030;4.686;2023-06-19T12:35:15;12.45;;;5.93;;
25123;SDS011;13104;51.030;4.686;2023-06-19T12:37:41;10.60;;;6.07;;
25123;SDS011;13104;51.030;4.686;2023-06-19T12:40:07;10.73;;;6.03;;
25123;SDS011;13104;51.030;4.686;2023-06-19T12:42:35;13.55;;;6.40;;
25123;SDS011;13104;51.030;4.686;2023-06-19T12:45:02;10.38;;;6.95;;
25123;SDS011;13104;51.030;4.686;2023-06-19T12:47:28;11.98;;;6.50;;
25123;SDS011;13104;51.030;4.686;2023-06-19T12:49:55;10.38;;;6.07;;
25123;SDS011;13104;51.030;4.686;2023-06-19T12:52:21;18.83;;;6.25;;
25123;SDS011;13104;51.030;4.686;2023-06-19T12:54:47;10.55;;;6.22;;
25123;SDS011;13104;51.030;4.686;2023-06-19T12:57:13;12.90;;;6.68;;
25123;SDS011;13104;51.030;4.686;2023-06-19T12:59:39;13.65;;;6.03;;
25123;SDS011;13104;51.030;4.686;2023-06-19T13:02:06;10.55;;;6.25;;
25123;SDS011;13104;51.030;4.686;2023-06-19T13:04:32;11.75;;;6.20;;
25123;SDS011;13104;51.030;4.686;2023-06-19T13:06:58;12.57;;;6.18;;
25123;SDS011;13104;51.030;4.686;2023-06-19T13:09:25;12.32;;;5.70;;
25123;SDS011;13104;51.030;4.686;2023-06-19T13:11:51;14.20;;;6.25;;
25123;SDS011;13104;51.030;4.686;2023-06-19T13:14:17;12.77;;;6.45;;
25123;SDS011;13104;51.030;4.686;2023-06-19T13:16:43;11.05;;;6.15;;
25123;SDS011;13104;51.030;4.686;2023-06-19T13:19:09;17.63;;;6.70;;
25123;SDS011;13104;51.030;4.686;2023-06-19T13:21:35;12.57;;;6.50;;
25123;SDS011;13104;51.030;4.686;2023-06-19T13:24:01;11.68;;;6.03;;
25123;SDS011;13104;51.030;4.686;2023-06-19T13:26:27;10.73;;;6.30;;
25123;SDS011;13104;51.030;4.686;2023-06-19T13:28:54;10.32;;;5.80;;
25123;SDS011;13104;51.030;4.686;2023-06-19T13:31:23;10.30;;;6.32;;
25123;SDS011;13104;51.030;4.686;2023-06-19T13:33:50;11.27;;;6.78;;
25123;SDS011;13104;51.030;4.686;2023-06-19T13:36:16;10.93;;;6.00;;
25123;SDS011;13104;51.030;4.686;2023-06-19T13:38:43;12.02;;;6.35;;
25123;SDS011;13104;51.030;4.686;2023-06-19T13:41:10;10.77;;;6.53;;
25123;SDS011;13104;51.030;4.686;2023-06-19T13:43:37;11.48;;;5.78;;
25123;SDS011;13104;51.030;4.686;2023-06-19T13:46:05;11.50;;;6.60;;
25123;SDS011;13104;51.030;4.686;2023-06-19T13:48:31;10.07;;;6.80;;
25123;SDS011;13104;51.030;4.686;2023-06-19T13:50:59;9.80;;;6.32;;
25123;SDS011;13104;51.030;4.686;2023-06-19T13:53:26;10.02;;;6.53;;
25123;SDS011;13104;51.030;4.686;2023-06-19T13:55:54;12.52;;;7.03;;
25123;SDS011;13104;51.030;4.686;2023-06-19T13:58:20;9.25;;;6.10;;
25123;SDS011;13104;51.030;4.686;2023-06-19T14:00:46;9.07;;;6.22;;
25123;SDS011;13104;51.030;4.686;2023-06-19T14:03:12;9.45;;;6.18;;
25123;SDS011;13104;51.030;4.686;2023-06-19T14:05:39;8.85;;;6.10;;
25123;SDS011;13104;51.030;4.686;2023-06-19T14:08:05;12.43;;;5.85;;
25123;SDS011;13104;51.030;4.686;2023-06-19T14:10:31;8.50;;;5.55;;
25123;SDS011;13104;51.030;4.686;2023-06-19T14:12:57;7.60;;;5.85;;
25123;SDS011;13104;51.030;4.686;2023-06-19T14:15:24;12.38;;;7.15;;
25123;SDS011;13104;51.030;4.686;2023-06-19T14:17:50;11.77;;;6.57;;
25123;SDS011;13104;51.030;4.686;2023-06-19T14:20:16;9.93;;;6.60;;
25123;SDS011;13104;51.030;4.686;2023-06-19T14:22:42;11.82;;;6.50;;
25123;SDS011;13104;51.030;4.686;2023-06-19T14:25:08;8.77;;;6.10;;
25123;SDS011;13104;51.030;4.686;2023-06-19T14:27:34;11.70;;;5.75;;
25123;SDS011;13104;51.030;4.686;2023-06-19T14:30:00;10.88;;;6.43;;
25123;SDS011;13104;51.030;4.686;2023-06-19T14:32:27;9.07;;;5.90;;
25123;SDS011;13104;51.030;4.686;2023-06-19T14:34:53;9.55;;;5.55;;
25123;SDS011;13104;51.030;4.686;2023-06-19T14:37:20;11.98;;;5.88;;
25123;SDS011;13104;51.030;4.686;2023-06-19T14:39:46;8.52;;;5.03;;
25123;SDS011;13104;51.030;4.686;2023-06-19T14:42:12;9.23;;;5.35;;